Hlavní strana
METAR-TAF:

METAR-TAF

Letiště :

Rhodos, Řecko

zeměpisná šířka: 36-24N, zeměpisná délka: 028-05E, výška: 4 m

Aktuální stav počasí

Zpráva byla vytvořena před 23 minutami, v 04:50 UTC
Severoseverozápadní vítr 12 kt
Teplota 9°C
Vlhkost vzduchu 53%
Tlak 1029 hPa
Viditelnost 10 km a více
Skoro jasno ve výšce 2000 ft

METAR: LGRP 210450Z 34012KT 9999 FEW020 09/00 Q1029 NOSIG

Čas: 07:13 (05:13 UTC)

Předpověď počasí

Zpráva byla vytvořena před 6 hodinami a 13 minutami, v 23:00 UTC
Předpověď platná od 21 v 00 UTC do 21 v 24 UTC
Severoseverozápadní vítr 15 kt
Viditelnost 10 km a více
Skoro jasno ve výšce 1800 ft
Dočasný
od 21 v 03 UTC do 21 v 18 UTC
Severoseverozápadní vítr 20 kt s nárazy do 30 kt

TAF: LGRP 202300Z 2100/2124 34015KT 9999 FEW018 TEMPO 2103/2118 34020G30KT

Stav a předpovědi počasí z více než 4 000 letišť (zprávy METAR a TAF).

Červené a žluté tečky na mapě představují dostupné meteorologické stanice.

Když kurzor umístíte na tečku, zobrazí se název stanice.

Pak kliknutím zobrazíte stav a předpověď počasí.

Chcete-li změnit mapu, kliknutím na zelené tlačítko se znaménkem +mapu přiblížíte, kliknutím na zelené tlačítko se znaménkem – mapu oddálíte a kliknutím na zelené šipky přejdete na sousední mapy.


METAR-TAF: